Time;durP1;ratioP1;P1;durP2;ratioP2;P2;SDS_P1;SDS_P2;PMS_P1;PMS_P2;Temp;Humidity;BMP_temperature;BMP_pressure;BME280_temperature;BME280_humidity;BME280_pressure;Samples;Min_cycle;Max_cycle;Signal;HPM_P1;HPM_P2
2023/08/27 00:00:54;;;;;;;2.50;1.40;;;44.60;29.00;;;;;;5049206;28;20013;-62
2023/08/27 00:03:21;;;;;;;6.00;1.83;;;44.50;29.00;;;;;;5049545;28;20048;-61
2023/08/27 00:05:48;;;;;;;8.15;1.65;;;44.40;29.20;;;;;;5049080;28;20032;-61
2023/08/27 00:08:15;;;;;;;6.35;1.92;;;44.40;29.00;;;;;;5048815;28;20036;-60
2023/08/27 00:10:41;;;;;;;5.07;1.40;;;44.30;29.70;;;;;;5047711;28;20483;-63
2023/08/27 00:13:07;;;;;;;5.75;1.63;;;44.30;29.10;;;;;;5048754;28;20025;-56
2023/08/27 00:15:34;;;;;;;5.25;1.52;;;44.20;29.00;;;;;;5047350;28;20024;-59
2023/08/27 00:18:01;;;;;;;4.30;1.40;;;44.10;29.40;;;;;;5048155;28;20088;-61
2023/08/27 00:20:27;;;;;;;5.85;1.58;;;44.10;28.80;;;;;;5049353;28;20028;-59
2023/08/27 00:22:53;;;;;;;5.53;1.45;;;44.00;28.90;;;;;;5049169;28;20088;-59
2023/08/27 00:25:20;;;;;;;4.43;1.63;;;43.90;28.30;;;;;;5049887;28;20016;-58
2023/08/27 00:27:46;;;;;;;6.22;1.70;;;43.80;28.50;;;;;;5049147;28;20090;-62
2023/08/27 00:30:13;;;;;;;4.45;1.80;;;43.70;28.50;;;;;;5048935;28;20021;-60
2023/08/27 00:32:40;;;;;;;4.10;1.35;;;43.70;29.00;;;;;;5049539;28;20017;-58
2023/08/27 00:35:07;;;;;;;6.85;1.30;;;43.70;28.80;;;;;;5049191;28;20017;-60
2023/08/27 00:37:33;;;;;;;3.95;1.33;;;43.60;28.90;;;;;;5048843;28;20009;-62
2023/08/27 00:40:00;;;;;;;4.68;2.30;;;43.50;28.90;;;;;;5049111;28;20021;-61
2023/08/27 00:42:26;;;;;;;6.50;2.08;;;43.40;29.20;;;;;;5045533;28;20492;-64
2023/08/27 00:44:52;;;;;;;5.55;1.80;;;43.40;29.30;;;;;;5048221;28;20036;-58
2023/08/27 00:47:19;;;;;;;3.15;1.75;;;43.30;29.30;;;;;;5048667;28;20021;-62
2023/08/27 00:49:46;;;;;;;3.65;1.50;;;43.20;29.10;;;;;;5047054;28;20013;-60
2023/08/27 00:52:13;;;;;;;5.13;1.88;;;43.20;29.30;;;;;;5050632;28;20017;-57
2023/08/27 00:54:43;;;;;;;3.17;1.20;;;43.10;29.20;;;;;;5049653;28;20017;-59
2023/08/27 00:57:10;;;;;;;2.40;1.52;;;43.00;28.60;;;;;;5048729;28;20078;-60
2023/08/27 00:59:37;;;;;;;4.45;2.80;;;43.00;28.80;;;;;;5048485;28;20033;-58
2023/08/27 01:02:04;;;;;;;5.63;2.70;;;42.90;29.00;;;;;;5049265;28;20017;-61
2023/08/27 01:04:31;;;;;;;4.57;1.60;;;42.90;29.30;;;;;;5048110;28;20076;-60
2023/08/27 01:07:07;;;;;;;4.65;1.13;;;42.70;29.40;;;;;;5048273;28;20066;-57
2023/08/27 01:09:44;;;;;;;4.10;1.20;;;42.70;28.80;;;;;;5047704;28;20016;-58
2023/08/27 01:12:23;;;;;;;6.55;1.38;;;42.60;29.00;;;;;;5047594;28;20013;-57
2023/08/27 01:14:52;;;;;;;3.47;1.27;;;42.60;29.70;;;;;;5047829;28;20048;-60
2023/08/27 01:17:22;;;;;;;4.38;1.38;;;42.60;29.50;;;;;;5047950;28;20025;-58
2023/08/27 01:19:49;;;;;;;3.78;1.30;;;42.60;29.10;;;;;;5048551;28;20584;-57
2023/08/27 01:22:17;;;;;;;4.13;1.35;;;42.40;28.90;;;;;;5047687;28;20108;-59
2023/08/27 01:24:43;;;;;;;6.15;1.70;;;42.40;29.40;;;;;;5048255;28;20009;-59
2023/08/27 01:27:29;;;;;;;6.82;1.50;;;42.30;29.70;;;;;;5047796;28;20032;-59
2023/08/27 01:30:17;;;;;;;4.18;1.50;;;42.20;29.70;;;;;;5045805;28;20013;-60
2023/08/27 01:32:55;;;;;;;4.35;1.40;;;42.00;29.90;;;;;;5046787;28;20040;-60
2023/08/27 01:35:22;;;;;;;2.60;1.30;;;42.00;29.70;;;;;;5051518;28;20086;-60
2023/08/27 01:37:49;;;;;;;6.28;1.30;;;41.90;30.00;;;;;;5045934;28;20032;-59
2023/08/27 01:40:18;;;;;;;4.70;1.48;;;41.80;30.40;;;;;;5047725;28;20041;-56
2023/08/27 01:42:44;;;;;;;4.80;1.38;;;41.70;30.60;;;;;;5047379;28;20029;-56
2023/08/27 01:45:12;;;;;;;2.50;1.55;;;41.60;31.00;;;;;;5046442;28;20097;-56
2023/08/27 01:47:38;;;;;;;6.82;1.65;;;41.50;32.00;;;;;;5047824;28;20079;-61
2023/08/27 01:50:05;;;;;;;7.10;1.55;;;41.40;31.70;;;;;;5048223;28;20097;-58
2023/08/27 01:52:33;;;;;;;5.22;2.42;;;41.30;32.10;;;;;;5046699;28;20052;-59
2023/08/27 01:55:00;;;;;;;8.40;4.70;;;41.20;32.60;;;;;;5047038;28;20017;-56
2023/08/27 01:57:26;;;;;;;7.00;1.90;;;41.10;32.20;;;;;;5046923;28;20078;-60
2023/08/27 01:59:52;;;;;;;11.02;2.20;;;40.90;31.80;;;;;;5047523;28;20108;-55
2023/08/27 02:02:19;;;;;;;13.43;2.40;;;40.90;32.20;;;;;;5046679;28;20112;-58
2023/08/27 02:04:45;;;;;;;7.32;2.20;;;40.80;32.50;;;;;;5048439;28;20097;-60
2023/08/27 02:07:12;;;;;;;11.23;2.50;;;40.70;33.10;;;;;;5046117;28;20078;-60
2023/08/27 02:09:38;;;;;;;7.00;1.85;;;40.60;32.80;;;;;;5046186;28;20032;-60
2023/08/27 02:12:05;;;;;;;22.85;2.80;;;40.50;32.60;;;;;;5046414;28;20048;-60
2023/08/27 02:14:31;;;;;;;5.40;1.80;;;40.40;33.50;;;;;;5047472;28;20110;-60
2023/08/27 02:16:58;;;;;;;10.90;1.58;;;40.30;33.10;;;;;;5047170;28;20017;-60
2023/08/27 02:19:24;;;;;;;25.85;2.40;;;40.20;33.70;;;;;;5046849;28;20124;-62
2023/08/27 02:21:51;;;;;;;19.52;2.47;;;40.10;34.20;;;;;;5047601;28;20039;-59
2023/08/27 02:24:18;;;;;;;14.85;2.20;;;40.00;34.50;;;;;;5045687;28;20117;-56
2023/08/27 02:26:44;;;;;;;7.53;1.58;;;39.90;34.30;;;;;;5047136;28;20010;-59
2023/08/27 02:29:11;;;;;;;9.77;1.83;;;39.70;34.20;;;;;;5041373;28;20029;-58
2023/08/27 02:31:37;;;;;;;8.38;1.98;;;39.70;34.20;;;;;;5045844;28;20128;-61
2023/08/27 02:34:04;;;;;;;9.65;1.77;;;39.60;34.70;;;;;;5048211;28;20492;-61
2023/08/27 02:36:30;;;;;;;8.48;2.30;;;39.50;34.60;;;;;;5046266;28;20503;-56
2023/08/27 02:38:57;;;;;;;10.75;4.75;;;39.30;35.20;;;;;;5050859;28;20140;-61
2023/08/27 02:41:24;;;;;;;14.40;5.57;;;39.30;35.30;;;;;;5057654;28;20017;-58
2023/08/27 02:43:50;;;;;;;30.17;22.60;;;39.20;35.30;;;;;;5050594;28;20017;-59
2023/08/27 02:46:17;;;;;;;137.93;124.65;;;39.10;35.80;;;;;;5052176;28;20500;-57
2023/08/27 02:48:43;;;;;;;640.88;573.25;;;39.00;36.50;;;;;;5050278;28;20021;-60
2023/08/27 02:51:10;;;;;;;46.60;41.65;;;38.90;36.50;;;;;;5048920;28;20023;-60
2023/08/27 02:53:36;;;;;;;17.58;7.90;;;38.80;35.80;;;;;;5050695;28;20031;-61
2023/08/27 02:56:03;;;;;;;15.63;3.33;;;38.70;35.60;;;;;;5050244;28;20104;-59
2023/08/27 02:58:30;;;;;;;14.20;3.03;;;38.60;35.40;;;;;;5050922;28;20052;-56
2023/08/27 03:00:56;;;;;;;16.73;2.50;;;38.50;35.30;;;;;;5050046;28;20020;-60
2023/08/27 03:03:22;;;;;;;10.60;2.10;;;38.50;35.70;;;;;;5049668;28;20098;-57
2023/08/27 03:05:49;;;;;;;13.88;2.22;;;38.40;35.20;;;;;;5050191;28;20346;-57
2023/08/27 03:08:16;;;;;;;18.60;2.83;;;38.40;35.10;;;;;;5047846;28;20020;-63
2023/08/27 03:10:42;;;;;;;13.43;2.40;;;38.30;36.00;;;;;;5051059;28;20030;-60
2023/08/27 03:13:09;;;;;;;14.93;2.35;;;38.30;35.90;;;;;;5050359;28;20075;-60
2023/08/27 03:15:35;;;;;;;8.20;3.00;;;38.10;35.80;;;;;;5062555;28;20024;-60
2023/08/27 03:18:03;;;;;;;15.27;3.97;;;38.00;35.70;;;;;;5049705;28;20184;-60
2023/08/27 03:20:29;;;;;;;9.32;3.78;;;38.00;35.80;;;;;;5049152;28;20013;-60
2023/08/27 03:22:56;;;;;;;11.10;3.80;;;37.90;35.70;;;;;;5050537;28;20459;-62
2023/08/27 03:25:22;;;;;;;10.63;4.78;;;37.80;35.70;;;;;;5050099;28;20021;-60
2023/08/27 03:27:49;;;;;;;14.73;4.97;;;37.80;35.80;;;;;;5049942;28;20028;-59
2023/08/27 03:30:15;;;;;;;14.80;4.47;;;37.70;35.80;;;;;;5049793;28;20013;-61
2023/08/27 03:32:41;;;;;;;10.18;3.88;;;37.70;36.00;;;;;;5050811;28;20070;-60
2023/08/27 03:35:08;;;;;;;15.43;4.43;;;37.60;35.90;;;;;;5049997;28;20025;-60
2023/08/27 03:37:34;;;;;;;13.48;4.03;;;37.50;35.90;;;;;;5049280;28;20036;-61
2023/08/27 03:40:02;;;;;;;15.48;3.75;;;37.50;35.70;;;;;;5049084;28;20013;-61
2023/08/27 03:42:28;;;;;;;20.55;4.38;;;37.40;36.50;;;;;;5048228;28;20097;-62
2023/08/27 03:44:54;;;;;;;15.15;4.60;;;37.40;36.80;;;;;;5049000;28;20019;-60
2023/08/27 03:47:21;;;;;;;17.77;4.50;;;37.30;36.60;;;;;;5052292;28;20017;-61
2023/08/27 03:49:47;;;;;;;23.50;5.03;;;37.40;36.30;;;;;;5047723;28;20492;-60
2023/08/27 03:52:14;;;;;;;10.45;4.15;;;37.30;36.10;;;;;;5048909;28;20025;-58
2023/08/27 03:54:40;;;;;;;12.65;4.18;;;37.20;35.90;;;;;;5049609;28;20079;-60
2023/08/27 03:57:06;;;;;;;9.77;4.07;;;37.20;35.90;;;;;;5049499;28;20059;-59
2023/08/27 03:59:33;;;;;;;13.20;3.85;;;37.10;35.80;;;;;;5048587;28;20362;-60
2023/08/27 04:01:59;;;;;;;11.40;4.60;;;37.10;35.50;;;;;;5048696;28;20021;-59
2023/08/27 04:04:26;;;;;;;11.82;4.20;;;37.10;35.90;;;;;;5048681;28;21169;-60
2023/08/27 04:06:54;;;;;;;15.50;5.00;;;37.10;35.80;;;;;;5048705;28;20021;-60
2023/08/27 04:09:20;;;;;;;18.75;5.53;;;37.00;35.80;;;;;;5048527;28;20048;-60
2023/08/27 04:11:49;;;;;;;11.18;6.93;;;37.00;36.00;;;;;;5050043;28;20029;-59
2023/08/27 04:14:15;;;;;;;20.77;6.43;;;37.00;37.50;;;;;;5047722;28;20078;-59
2023/08/27 04:16:41;;;;;;;25.88;7.55;;;37.00;36.90;;;;;;5049806;28;20017;-59
2023/08/27 04:19:08;;;;;;;34.13;6.95;;;37.10;36.90;;;;;;5047895;28;20496;-60
2023/08/27 04:21:34;;;;;;;28.90;7.65;;;37.10;36.90;;;;;;5048824;28;20010;-60
2023/08/27 04:24:01;;;;;;;37.35;7.22;;;37.10;36.90;;;;;;5048668;28;20009;-59
2023/08/27 04:26:27;;;;;;;50.30;8.13;;;37.10;37.40;;;;;;5048476;28;20086;-60
2023/08/27 04:28:54;;;;;;;30.30;7.80;;;37.10;37.40;;;;;;5048977;28;20380;-60
2023/08/27 04:31:22;;;;;;;33.08;7.60;;;37.10;37.20;;;;;;5047639;28;20385;-63
2023/08/27 04:33:48;;;;;;;31.35;7.30;;;37.10;37.10;;;;;;5048148;28;20082;-60
2023/08/27 04:36:14;;;;;;;16.02;5.30;;;37.20;36.50;;;;;;5049931;28;20024;-59
2023/08/27 04:38:41;;;;;;;14.75;4.15;;;37.40;36.80;;;;;;5047920;28;20036;-60
2023/08/27 04:41:07;;;;;;;17.30;3.92;;;37.50;36.80;;;;;;5048976;28;20481;-61
2023/08/27 04:43:34;;;;;;;13.15;3.60;;;37.50;37.00;;;;;;5050734;28;20083;-63
2023/08/27 04:46:00;;;;;;;8.90;2.53;;;37.40;37.30;;;;;;5048268;28;20096;-60
2023/08/27 04:48:27;;;;;;;9.90;3.03;;;37.40;36.80;;;;;;5048209;28;20021;-61
2023/08/27 04:50:53;;;;;;;6.82;2.90;;;37.50;37.00;;;;;;5049230;28;20073;-59
2023/08/27 04:53:20;;;;;;;5.88;3.75;;;37.50;36.90;;;;;;5048750;28;20052;-60
2023/08/27 04:55:46;;;;;;;9.25;3.17;;;37.50;36.90;;;;;;5047923;28;20032;-61
2023/08/27 04:58:15;;;;;;;4.90;2.90;;;37.50;36.70;;;;;;5046817;28;20053;-60
2023/08/27 05:00:42;;;;;;;13.30;4.38;;;37.40;37.10;;;;;;5047295;28;20958;-61
2023/08/27 05:03:08;;;;;;;8.93;3.65;;;37.40;36.60;;;;;;5050336;28;20017;-61
2023/08/27 05:05:35;;;;;;;11.70;3.38;;;37.40;37.00;;;;;;5049004;28;20024;-60
2023/08/27 05:08:02;;;;;;;5.20;2.40;;;37.40;36.60;;;;;;5046993;28;20028;-61
2023/08/27 05:10:29;;;;;;;11.32;2.40;;;37.40;36.60;;;;;;5053153;28;20104;-62
2023/08/27 05:12:55;;;;;;;8.15;2.85;;;37.40;36.80;;;;;;5051641;28;20101;-60
2023/08/27 05:15:22;;;;;;;10.23;2.80;;;37.40;36.70;;;;;;5047454;28;20441;-59
2023/08/27 05:17:48;;;;;;;7.43;2.90;;;37.30;36.70;;;;;;5050844;28;20033;-60
2023/08/27 05:20:16;;;;;;;7.47;2.60;;;37.30;37.00;;;;;;5048819;28;20016;-60
2023/08/27 05:22:43;;;;;;;10.32;2.75;;;37.20;37.10;;;;;;5048338;28;20437;-59
2023/08/27 05:25:10;;;;;;;5.65;2.40;;;37.20;37.00;;;;;;5047454;28;20021;-61
2023/08/27 05:27:43;;;;;;;8.05;2.10;;;37.20;37.10;;;;;;5050705;28;20139;-61
2023/08/27 05:30:12;;;;;;;4.15;2.50;;;37.10;37.00;;;;;;5049847;28;20558;-61
2023/08/27 05:32:40;;;;;;;8.20;2.20;;;37.10;36.80;;;;;;5047364;28;20350;-60
2023/08/27 05:35:06;;;;;;;5.90;1.98;;;37.10;36.70;;;;;;5050697;28;21462;-60
2023/08/27 05:37:33;;;;;;;4.55;1.70;;;37.00;36.30;;;;;;5047380;28;20020;-59
2023/08/27 05:39:59;;;;;;;6.50;2.15;;;37.10;36.30;;;;;;5048625;28;20009;-59
2023/08/27 05:42:26;;;;;;;8.88;1.90;;;37.00;36.10;;;;;;5046945;28;20035;-61
2023/08/27 05:44:52;;;;;;;5.60;1.73;;;37.00;36.20;;;;;;5047231;28;20009;-59
2023/08/27 05:47:19;;;;;;;8.30;2.20;;;37.00;36.40;;;;;;5052214;28;20578;-60
2023/08/27 05:49:45;;;;;;;8.63;2.33;;;37.00;36.50;;;;;;5049922;28;20027;-60
2023/08/27 05:52:12;;;;;;;7.30;2.17;;;37.00;36.70;;;;;;5055069;28;20388;-60
2023/08/27 05:54:38;;;;;;;9.80;2.20;;;37.00;36.90;;;;;;5047689;28;20021;-60
2023/08/27 05:57:04;;;;;;;5.97;2.40;;;37.00;36.80;;;;;;5047516;28;20044;-60
2023/08/27 05:59:31;;;;;;;8.93;2.75;;;37.00;36.90;;;;;;5046788;28;20111;-59
2023/08/27 06:01:59;;;;;;;4.45;2.58;;;37.00;37.30;;;;;;5047625;28;20021;-58
2023/08/27 06:04:26;;;;;;;5.47;2.58;;;36.90;37.20;;;;;;5052524;28;20013;-62
2023/08/27 06:06:52;;;;;;;3.20;2.25;;;36.90;37.20;;;;;;5049849;28;20025;-59
2023/08/27 06:09:19;;;;;;;11.73;2.55;;;36.80;37.90;;;;;;5045535;28;20086;-61
2023/08/27 06:11:45;;;;;;;7.68;2.45;;;36.80;37.70;;;;;;5046285;28;20064;-60
2023/08/27 06:14:13;;;;;;;6.68;2.33;;;36.70;37.30;;;;;;5049394;28;20005;-61
2023/08/27 06:16:39;;;;;;;5.35;2.40;;;36.70;37.40;;;;;;5048151;28;20017;-61
2023/08/27 06:19:06;;;;;;;11.02;1.95;;;36.70;37.50;;;;;;5047094;28;20112;-58
2023/08/27 06:21:32;;;;;;;4.85;2.13;;;36.70;37.20;;;;;;5045676;28;20465;-59
2023/08/27 06:23:58;;;;;;;8.52;1.98;;;36.60;37.20;;;;;;5051914;28;20028;-60
2023/08/27 06:26:25;;;;;;;5.20;1.90;;;36.60;37.70;;;;;;5047441;28;20013;-58
2023/08/27 06:28:51;;;;;;;7.55;1.90;;;36.50;37.00;;;;;;5051535;28;20059;-58
2023/08/27 06:31:18;;;;;;;5.13;1.50;;;36.40;36.80;;;;;;5046956;28;20025;-58
2023/08/27 06:33:44;;;;;;;3.72;1.50;;;36.50;36.80;;;;;;5045600;28;20063;-60
2023/08/27 06:36:10;;;;;;;6.43;1.63;;;36.40;37.00;;;;;;5047137;28;20472;-62
2023/08/27 06:38:37;;;;;;;54.00;3.55;;;36.40;36.70;;;;;;5045098;28;20396;-62
2023/08/27 06:41:03;;;;;;;6.70;1.75;;;36.40;36.00;;;;;;5046482;28;21157;-62
2023/08/27 06:43:29;;;;;;;8.63;2.05;;;36.40;35.50;;;;;;5044231;28;20484;-64
2023/08/27 06:45:56;;;;;;;7.45;1.60;;;36.40;35.30;;;;;;5047929;28;20021;-62
2023/08/27 06:48:22;;;;;;;4.18;1.42;;;36.40;34.90;;;;;;5048152;28;20079;-61
2023/08/27 06:50:49;;;;;;;4.20;1.20;;;36.50;34.50;;;;;;5045701;28;20368;-61
2023/08/27 06:53:15;;;;;;;4.85;1.70;;;36.50;34.30;;;;;;5046249;28;20053;-61
2023/08/27 06:55:42;;;;;;;3.40;1.30;;;36.60;34.20;;;;;;5046631;28;20021;-62
2023/08/27 06:58:08;;;;;;;7.35;1.55;;;36.60;34.40;;;;;;5050851;28;20029;-62
2023/08/27 07:00:35;;;;;;;3.58;1.65;;;36.50;34.30;;;;;;5047293;28;20436;-65
2023/08/27 07:03:02;;;;;;;5.35;1.50;;;36.50;34.10;;;;;;5046837;28;20033;-62
2023/08/27 07:05:30;;;;;;;5.10;1.45;;;36.50;34.10;;;;;;5046541;28;20020;-62
2023/08/27 07:07:56;;;;;;;5.50;1.40;;;36.50;34.20;;;;;;5044987;28;20075;-61
2023/08/27 07:10:23;;;;;;;5.88;1.38;;;36.40;34.60;;;;;;5046325;28;20386;-59
2023/08/27 07:12:49;;;;;;;2.72;1.70;;;36.30;34.40;;;;;;5045702;28;20017;-62
2023/08/27 07:15:16;;;;;;;3.92;1.48;;;36.30;34.30;;;;;;5046467;28;20540;-62
2023/08/27 07:17:42;;;;;;;3.63;1.30;;;36.20;34.40;;;;;;5049682;28;20029;-62
2023/08/27 07:20:09;;;;;;;2.65;1.23;;;36.20;34.50;;;;;;5048392;28;20021;-62
2023/08/27 07:22:36;;;;;;;4.82;1.70;;;36.20;34.20;;;;;;5050355;28;20099;-61
2023/08/27 07:25:03;;;;;;;4.75;1.50;;;36.10;34.30;;;;;;5050180;28;20021;-62
2023/08/27 07:27:29;;;;;;;2.58;1.05;;;36.20;34.40;;;;;;5050012;28;20015;-63
2023/08/27 07:29:56;;;;;;;3.35;1.52;;;36.10;34.60;;;;;;5056563;28;20049;-61
2023/08/27 07:32:22;;;;;;;3.25;1.30;;;36.10;35.00;;;;;;5056331;28;20029;-63
2023/08/27 07:34:48;;;;;;;1.70;1.10;;;36.00;34.20;;;;;;5052484;28;20448;-61
2023/08/27 07:37:15;;;;;;;4.18;1.52;;;36.00;33.80;;;;;;5050151;28;20017;-61
2023/08/27 07:39:41;;;;;;;2.50;1.42;;;35.90;33.90;;;;;;5054879;28;20063;-62
2023/08/27 07:42:08;;;;;;;7.00;1.40;;;35.90;33.50;;;;;;5049799;28;20067;-61
2023/08/27 07:44:34;;;;;;;6.32;1.25;;;35.80;33.70;;;;;;5049747;28;20041;-62
2023/08/27 07:47:00;;;;;;;6.57;1.35;;;35.90;34.50;;;;;;5053934;28;20013;-67
2023/08/27 07:49:27;;;;;;;6.35;1.38;;;35.80;34.10;;;;;;5046877;28;20021;-60
2023/08/27 07:51:53;;;;;;;2.47;1.23;;;35.80;34.40;;;;;;5050073;28;20488;-61
2023/08/27 07:54:20;;;;;;;4.20;1.40;;;35.70;33.90;;;;;;5055757;28;20020;-64
2023/08/27 07:56:46;;;;;;;4.88;1.40;;;35.70;34.10;;;;;;5058412;28;20104;-59
2023/08/27 07:59:13;;;;;;;3.58;1.33;;;35.70;34.10;;;;;;5049181;28;20082;-61
2023/08/27 08:01:39;;;;;;;4.10;1.42;;;35.70;34.50;;;;;;5052429;28;20012;-62
2023/08/27 08:04:06;;;;;;;5.25;1.70;;;35.60;35.00;;;;;;5049150;28;20045;-61
2023/08/27 08:06:32;;;;;;;2.08;1.40;;;35.60;35.10;;;;;;5050738;28;20072;-62
2023/08/27 08:08:59;;;;;;;1.92;1.40;;;35.50;35.50;;;;;;5048837;28;20036;-63
2023/08/27 08:11:25;;;;;;;2.95;1.40;;;35.50;35.90;;;;;;5050578;28;20017;-62
2023/08/27 08:13:52;;;;;;;2.75;1.50;;;35.50;36.30;;;;;;5048723;28;20021;-62
2023/08/27 08:16:19;;;;;;;8.20;1.48;;;35.40;36.30;;;;;;5051177;28;20461;-62
2023/08/27 08:18:45;;;;;;;5.72;1.50;;;35.30;36.40;;;;;;5049106;28;20036;-62
2023/08/27 08:21:12;;;;;;;3.95;1.60;;;35.30;36.50;;;;;;5048526;28;20385;-61
2023/08/27 08:23:38;;;;;;;8.10;1.50;;;35.20;36.50;;;;;;5049653;28;20070;-63
2023/08/27 08:26:05;;;;;;;4.82;1.52;;;35.10;37.50;;;;;;5049381;28;20017;-61
2023/08/27 08:28:32;;;;;;;3.15;1.50;;;35.10;36.50;;;;;;5047391;28;20066;-62
2023/08/27 08:30:58;;;;;;;5.43;1.80;;;35.10;37.00;;;;;;5048455;28;20063;-63
2023/08/27 08:33:25;;;;;;;2.83;1.52;;;35.00;36.70;;;;;;5048796;28;20017;-62
2023/08/27 08:35:51;;;;;;;3.75;1.60;;;35.00;37.10;;;;;;5049609;28;20385;-63
2023/08/27 08:38:18;;;;;;;7.90;1.70;;;35.00;37.00;;;;;;5048480;28;20112;-61
2023/08/27 08:40:48;;;;;;;5.10;1.60;;;34.90;37.60;;;;;;5049532;28;20020;-62
2023/08/27 08:43:47;;;;;;;7.75;1.88;;;34.90;37.40;;;;;;5048644;28;20031;-62
2023/08/27 08:46:17;;;;;;;4.65;1.70;;;34.90;37.80;;;;;;5044121;28;20032;-63
2023/08/27 08:48:47;;;;;;;6.55;1.83;;;34.70;37.90;;;;;;5051303;28;20017;-62
2023/08/27 08:51:14;;;;;;;5.43;1.73;;;34.70;38.10;;;;;;5047425;28;20392;-63
2023/08/27 08:53:42;;;;;;;5.65;1.83;;;34.70;38.60;;;;;;5048521;28;20024;-60
2023/08/27 08:56:13;;;;;;;3.58;1.90;;;34.70;38.40;;;;;;5047160;28;20024;-62
2023/08/27 08:58:45;;;;;;;4.82;1.73;;;34.60;38.80;;;;;;5047638;28;20500;-61
2023/08/27 09:01:13;;;;;;;7.40;1.80;;;34.50;39.00;;;;;;5051613;28;20393;-60
2023/08/27 09:03:40;;;;;;;2.45;1.55;;;34.40;38.90;;;;;;5048069;28;20539;-62
2023/08/27 09:06:07;;;;;;;5.22;1.65;;;34.20;39.20;;;;;;5048303;28;20024;-62
2023/08/27 09:08:36;;;;;;;7.78;2.03;;;34.20;40.20;;;;;;5048282;28;20025;-61
2023/08/27 09:11:03;;;;;;;2.03;1.40;;;34.10;40.00;;;;;;5048771;28;20020;-58
2023/08/27 09:13:30;;;;;;;5.95;2.00;;;34.00;41.30;;;;;;5047424;28;20100;-62
2023/08/27 09:15:56;;;;;;;4.28;1.58;;;33.90;41.80;;;;;;5047747;28;20016;-61
2023/08/27 09:18:22;;;;;;;6.15;1.40;;;33.80;42.20;;;;;;5047470;28;20381;-62
2023/08/27 09:20:50;;;;;;;4.28;1.52;;;33.80;42.90;;;;;;5047757;28;20052;-62
2023/08/27 09:23:17;;;;;;;5.72;1.42;;;33.70;42.80;;;;;;5047402;28;20025;-62
2023/08/27 09:25:44;;;;;;;8.38;1.45;;;33.50;42.20;;;;;;5058578;28;20013;-62
2023/08/27 09:28:11;;;;;;;5.72;1.60;;;33.40;41.90;;;;;;5055124;28;20504;-61
2023/08/27 09:30:38;;;;;;;2.75;1.35;;;33.30;42.30;;;;;;5052225;28;20025;-61
2023/08/27 09:33:04;;;;;;;5.57;1.42;;;33.30;42.50;;;;;;5047572;28;20015;-61
2023/08/27 09:35:38;;;;;;;5.45;1.33;;;33.20;42.30;;;;;;5054003;28;20603;-63
2023/08/27 09:38:05;;;;;;;10.45;1.30;;;33.20;42.50;;;;;;5047558;28;20115;-61
2023/08/27 09:40:32;;;;;;;8.50;1.35;;;33.20;42.50;;;;;;5047589;28;20424;-61
2023/08/27 09:43:10;;;;;;;2.53;1.60;;;33.00;41.90;;;;;;5047026;28;20032;-63
2023/08/27 09:45:38;;;;;;;9.02;1.90;;;33.00;42.60;;;;;;5056160;28;20040;-61
2023/08/27 09:48:05;;;;;;;5.15;2.00;;;32.90;42.60;;;;;;5054157;28;20376;-61
2023/08/27 09:50:32;;;;;;;7.18;1.70;;;32.90;42.40;;;;;;5055586;28;20020;-62
2023/08/27 09:53:07;;;;;;;9.93;1.85;;;32.90;42.20;;;;;;5047412;28;20146;-62
2023/08/27 09:55:34;;;;;;;5.03;1.70;;;32.80;41.90;;;;;;5048029;28;20024;-60
2023/08/27 09:58:02;;;;;;;7.15;1.40;;;32.80;41.40;;;;;;5050263;28;20033;-62
2023/08/27 10:00:29;;;;;;;5.20;1.60;;;32.70;41.40;;;;;;5055087;28;20480;-61
2023/08/27 10:02:58;;;;;;;6.07;1.60;;;32.80;41.60;;;;;;5046904;28;20037;-62
2023/08/27 10:05:27;;;;;;;5.68;1.60;;;32.80;41.00;;;;;;5056860;28;20019;-62
2023/08/27 10:07:59;;;;;;;9.68;1.92;;;32.70;41.10;;;;;;5051802;28;20013;-61
2023/08/27 10:10:27;;;;;;;7.75;1.70;;;32.80;40.90;;;;;;5050856;28;20020;-63
2023/08/27 10:12:54;;;;;;;3.50;1.58;;;32.80;40.90;;;;;;5054245;28;20012;-61
2023/08/27 10:15:23;;;;;;;3.25;1.42;;;32.80;40.50;;;;;;5054069;28;20152;-62
2023/08/27 10:17:56;;;;;;;6.85;1.40;;;32.80;40.80;;;;;;5045639;28;20473;-61
2023/08/27 10:20:23;;;;;;;5.63;1.55;;;32.80;41.00;;;;;;5049906;28;20020;-61
2023/08/27 10:22:50;;;;;;;3.55;1.65;;;32.60;40.30;;;;;;5050252;28;20210;-63
2023/08/27 10:25:17;;;;;;;6.53;1.77;;;32.60;41.30;;;;;;5047856;28;20009;-60
2023/08/27 10:27:48;;;;;;;7.20;1.60;;;32.70;40.90;;;;;;5049425;28;20025;-63
2023/08/27 10:30:21;;;;;;;4.95;1.60;;;32.60;41.10;;;;;;5048870;28;20377;-61
2023/08/27 10:32:47;;;;;;;6.03;1.40;;;32.60;40.30;;;;;;5047316;28;20103;-60
2023/08/27 10:35:14;;;;;;;11.90;1.63;;;32.60;40.70;;;;;;5049054;28;20409;-60
2023/08/27 10:37:48;;;;;;;3.20;1.13;;;32.60;40.70;;;;;;5050029;28;20382;-63
2023/08/27 10:40:15;;;;;;;7.40;1.40;;;32.60;40.10;;;;;;5048718;28;20019;-60
2023/08/27 10:42:41;;;;;;;3.65;1.38;;;32.60;39.80;;;;;;5049998;28;20025;-63
2023/08/27 10:45:15;;;;;;;2.25;1.30;;;32.70;39.80;;;;;;5051847;28;20009;-63
2023/08/27 10:48:03;;;;;;;2.42;1.30;;;32.70;40.40;;;;;;5049088;28;20013;-63
2023/08/27 10:50:54;;;;;;;4.90;1.30;;;32.70;40.70;;;;;;5049528;28;20339;-62
2023/08/27 10:53:22;;;;;;;4.20;1.50;;;32.70;39.90;;;;;;5046926;28;20082;-59
2023/08/27 10:55:50;;;;;;;6.90;1.60;;;32.70;40.30;;;;;;5048950;28;20024;-62
2023/08/27 10:58:22;;;;;;;4.78;1.58;;;32.70;40.30;;;;;;5049072;28;20035;-60
2023/08/27 11:01:11;;;;;;;4.57;1.60;;;32.70;40.00;;;;;;5050416;28;20024;-62
2023/08/27 11:03:58;;;;;;;3.22;1.48;;;32.60;40.50;;;;;;5054717;28;20116;-62
2023/08/27 11:06:48;;;;;;;5.72;1.20;;;32.60;40.60;;;;;;5050095;28;20018;-60
2023/08/27 11:09:17;;;;;;;2.75;1.40;;;32.60;40.90;;;;;;5049480;28;20465;-63
2023/08/27 11:11:48;;;;;;;5.63;1.25;;;32.60;41.30;;;;;;5053715;28;20480;-63
2023/08/27 11:14:16;;;;;;;5.78;1.67;;;32.50;42.00;;;;;;5052330;28;20013;-61
2023/08/27 11:16:46;;;;;;;5.10;1.42;;;32.50;41.40;;;;;;5053133;28;20015;-61
2023/08/27 11:19:13;;;;;;;3.63;1.30;;;32.50;42.10;;;;;;5049608;28;20029;-62
2023/08/27 11:21:45;;;;;;;5.35;1.63;;;32.40;41.20;;;;;;5050281;28;20013;-60
2023/08/27 11:24:15;;;;;;;2.65;1.17;;;32.50;41.60;;;;;;5051449;28;20021;-62
2023/08/27 11:26:43;;;;;;;3.88;1.40;;;32.40;41.30;;;;;;5051285;28;20020;-62
2023/08/27 11:29:11;;;;;;;2.92;1.40;;;32.40;41.90;;;;;;5049839;28;20017;-62
2023/08/27 11:31:41;;;;;;;5.50;1.35;;;32.40;42.20;;;;;;5053537;28;20473;-62
2023/08/27 11:34:13;;;;;;;3.65;1.17;;;32.40;41.80;;;;;;5052786;28;20021;-63
2023/08/27 11:36:54;;;;;;;4.43;1.60;;;32.40;41.70;;;;;;5052552;28;20103;-63
2023/08/27 11:39:21;;;;;;;4.38;1.35;;;32.30;42.00;;;;;;5057291;28;20033;-62
2023/08/27 11:41:47;;;;;;;4.65;1.30;;;32.20;42.30;;;;;;5048858;28;20024;-63
2023/08/27 11:44:13;;;;;;;2.17;1.10;;;32.20;42.40;;;;;;5048355;28;20029;-62
2023/08/27 11:46:41;;;;;;;3.13;1.50;;;32.20;42.40;;;;;;5050455;28;20458;-62
2023/08/27 11:49:08;;;;;;;1.75;1.10;;;32.20;41.90;;;;;;5048679;28;20503;-63
2023/08/27 11:51:35;;;;;;;6.90;1.70;;;32.10;42.10;;;;;;5049693;28;20380;-62
2023/08/27 11:54:07;;;;;;;1.92;1.40;;;32.10;42.20;;;;;;5053592;28;20039;-62
2023/08/27 11:56:36;;;;;;;2.65;1.23;;;32.10;43.70;;;;;;5052410;28;20047;-63
2023/08/27 11:59:06;;;;;;;4.30;1.60;;;32.00;42.90;;;;;;5052934;28;20032;-62
2023/08/27 12:01:33;;;;;;;5.43;1.20;;;31.90;43.00;;;;;;5050443;28;20377;-62
2023/08/27 12:04:00;;;;;;;3.88;1.30;;;31.90;44.00;;;;;;5050403;28;20533;-62
2023/08/27 12:06:28;;;;;;;3.42;1.42;;;31.80;43.60;;;;;;5052187;28;20040;-62
2023/08/27 12:08:56;;;;;;;2.60;1.48;;;31.80;43.40;;;;;;5050789;28;20021;-62
2023/08/27 12:11:27;;;;;;;8.15;2.35;;;31.80;43.70;;;;;;5051178;28;20140;-64
2023/08/27 12:14:01;;;;;;;3.15;1.50;;;31.80;44.30;;;;;;5047710;28;20092;-63
2023/08/27 12:16:35;;;;;;;3.40;1.20;;;31.70;43.70;;;;;;5056065;28;20025;-63
2023/08/27 12:19:11;;;;;;;2.15;1.10;;;31.80;44.00;;;;;;5053246;28;20033;-66
2023/08/27 12:21:51;;;;;;;2.33;1.20;;;31.80;43.40;;;;;;5051225;28;20792;-62
2023/08/27 12:24:28;;;;;;;7.35;1.58;;;31.80;43.80;;;;;;5048862;28;20017;-63
2023/08/27 12:26:56;;;;;;;4.00;1.30;;;31.80;43.20;;;;;;5049076;28;20005;-61
2023/08/27 12:29:27;;;;;;;3.90;1.27;;;31.80;43.30;;;;;;5048530;28;20115;-62
2023/08/27 12:31:55;;;;;;;6.78;1.50;;;31.80;43.30;;;;;;5050803;28;20463;-63
2023/08/27 12:34:45;;;;;;;3.60;1.40;;;31.80;43.60;;;;;;5055422;28;20078;-59
2023/08/27 12:37:13;;;;;;;5.32;1.50;;;31.90;43.00;;;;;;5035129;28;20037;-60
2023/08/27 12:39:41;;;;;;;5.13;1.25;;;32.00;43.10;;;;;;5051433;28;20025;-62
2023/08/27 12:42:09;;;;;;;2.35;1.25;;;32.10;42.90;;;;;;5049138;28;20465;-62
2023/08/27 12:44:36;;;;;;;4.05;1.48;;;32.10;42.60;;;;;;5047582;28;20058;-62
2023/08/27 12:47:04;;;;;;;1.77;1.50;;;32.20;42.40;;;;;;5049308;28;20013;-59
2023/08/27 12:49:31;;;;;;;6.03;1.70;;;32.20;42.30;;;;;;5048740;28;20028;-64